M I D A S
Marine Information and Data Acquisition System
Tripno 1738 of the Zeeleeuw from 2009-07-24 06:57:02 to 2009-07-24 14:23:39
Back to CruiseResearch ActivitiesStationsMapUnderway DataData graphs

EquipmentUnitsComment
TimeDGPSUTC
LatitudeDGPSDM.mWGS84
LongitudeDGPSDM.mWGS84
HeadingGyrodeg 
SOGDGPSknotsSpeed over ground
COGDGPSdegCourse over ground
DepthEcho soundermeters200 kHz
Missing or incorrect values are displayed as -999
Navigation data collected by the RV Zeeleeuw from 2009-07-24 06:43:54 to 2009-07-24 14:21:55
Time Latitude Longitude Heading SOG COG Depth
2009-07-24 06:45:03 51°13.681 2°55.881 107.8 3.4 290 -999
2009-07-24 06:46:03 51°13.695 2°55.797 95.3 2.9 281 -999
2009-07-24 06:47:01 51°13.699 2°55.74 77 1.1 281 11.9
2009-07-24 06:48:00 51°13.714 2°55.738 24.2 1.7 6 11.5
2009-07-24 06:48:59 51°13.774 2°55.695 326.6 6.4 327 10.4
2009-07-24 06:49:59 51°13.889 2°55.591 334.5 8.7 334 10.2
2009-07-24 06:50:59 51°14.024 2°55.49 337.3 9 335 10
2009-07-24 06:51:59 51°14.158 2°55.383 333 9 331 10.1
2009-07-24 06:52:59 51°14.277 2°55.233 314.6 9.4 312 10
2009-07-24 06:53:59 51°14.383 2°55.036 313.9 10 315 9.3
2009-07-24 06:54:59 51°14.518 2°54.865 331.3 10.9 325 9.3
2009-07-24 06:55:59 51°14.681 2°54.719 338.2 11.5 330 8.6
2009-07-24 06:56:59 51°14.846 2°54.565 337.1 11.5 330 8.7
2009-07-24 06:57:59 51°15.014 2°54.418 336.9 11.5 331 9.3
2009-07-24 06:58:59 51°15.181 2°54.268 336.1 11.5 330 9.5
2009-07-24 06:59:59 51°15.348 2°54.115 335.8 11.6 329 8.9
2009-07-24 07:00:59 51°15.513 2°53.955 334.4 11.7 328 9
2009-07-24 07:01:59 51°15.679 2°53.792 335.4 11.8 328 9.8
2009-07-24 07:02:59 51°15.845 2°53.624 333.8 11.8 327 10.2
2009-07-24 07:03:59 51°16.01 2°53.455 334.7 11.8 328 10.7
2009-07-24 07:04:59 51°16.177 2°53.288 334.7 11.8 327 10.7
2009-07-24 07:05:59 51°16.343 2°53.12 335.2 11.8 328 10.9
2009-07-24 07:06:59 51°16.511 2°52.957 335.4 11.8 329 10.7
2009-07-24 07:07:59 51°16.677 2°52.793 335.5 11.7 329 9.8
2009-07-24 07:08:59 51°16.845 2°52.64 336.1 11.6 331 8.4
2009-07-24 07:09:59 51°17.015 2°52.499 337.2 11.5 333 8.5
2009-07-24 07:10:59 51°17.184 2°52.353 335.9 11.6 331 9.1
2009-07-24 07:11:59 51°17.361 2°52.244 353.8 11.3 351 9.9
2009-07-24 07:12:59 51°17.547 2°52.22 3.6 11.2 358 9.9
2009-07-24 07:13:59 51°17.733 2°52.214 3.4 11.1 1 10.3
2009-07-24 07:14:59 51°17.919 2°52.19 358.6 11.3 352 9.6
2009-07-24 07:15:59 51°18.104 2°52.143 358.6 11.4 352 9.9
2009-07-24 07:16:59 51°18.291 2°52.105 359.4 11.3 355 10.3
2009-07-24 07:17:59 51°18.478 2°52.063 358.3 11.4 351 10.5
2009-07-24 07:18:59 51°18.666 2°52.018 357.9 11.4 350 11.5
2009-07-24 07:19:59 51°18.853 2°51.975 -999 11.4 352 12.3
2009-07-24 07:20:59 51°19.04 2°51.94 0.8 11.4 353 13.7
2009-07-24 07:21:59 51°19.227 2°51.908 359.6 11.4 352 13.9
2009-07-24 07:22:59 51°19.414 2°51.871 359.4 11.3 352 14.3
2009-07-24 07:23:59 51°19.601 2°51.834 0.9 11.2 352 14.4
2009-07-24 07:24:59 51°19.788 2°51.797 0.1 11.4 354 14.7
2009-07-24 07:25:59 51°19.975 2°51.762 0.4 11.2 353 13.7
2009-07-24 07:26:59 51°20.161 2°51.721 359.7 11.4 351 12.2
2009-07-24 07:27:59 51°20.349 2°51.677 0.5 11.4 353 12.1
2009-07-24 07:28:59 51°20.537 2°51.639 0.5 11.5 353 13.7
2009-07-24 07:29:59 51°20.726 2°51.6 359.9 11.4 351 13.3
2009-07-24 07:30:59 51°20.915 2°51.567 1.7 11.4 354 15.7
2009-07-24 07:31:59 51°21.103 2°51.534 1.9 11.3 354 17.7
2009-07-24 07:32:59 51°21.291 2°51.501 2.1 11.4 355 20.4
2009-07-24 07:33:59 51°21.479 2°51.465 0.6 11.3 353 21.9
2009-07-24 07:34:59 51°21.666 2°51.429 1.1 11.3 353 22.3
2009-07-24 07:35:59 51°21.852 2°51.396 2.2 11.3 353 22.7
2009-07-24 07:36:59 51°22.039 2°51.366 3.1 11.3 355 22.4
2009-07-24 07:37:59 51°22.225 2°51.338 2.4 11.3 354 21.7
2009-07-24 07:38:59 51°22.412 2°51.308 1.5 11.4 353 21.9
2009-07-24 07:39:59 51°22.598 2°51.278 1.5 11.3 353 21.5
2009-07-24 07:40:59 51°22.783 2°51.247 1.4 11.1 358 21.2
2009-07-24 07:41:59 51°22.968 2°51.219 3.1 11.3 353 18.9
2009-07-24 07:42:59 51°23.153 2°51.195 2.7 11.1 355 13.6
2009-07-24 07:43:59 51°23.337 2°51.173 3.2 11.1 356 13.7
2009-07-24 07:44:59 51°23.52 2°51.147 2.1 11 357 15.4
2009-07-24 07:45:59 51°23.705 2°51.117 0.4 11.3 353 16.2
2009-07-24 07:46:59 51°23.891 2°51.09 2.1 11.3 354 17.8
2009-07-24 07:47:59 51°24.078 2°51.06 0.1 11.2 352 19.5
2009-07-24 07:48:59 51°24.261 2°51.034 2.8 11 355 20.8
2009-07-24 07:49:59 51°24.445 2°51.008 2.4 11 357 20.4
2009-07-24 07:50:59 51°24.628 2°50.979 1.8 11 357 21.7
2009-07-24 07:51:59 51°24.811 2°50.951 1.7 11.1 354 21.3
2009-07-24 07:52:59 51°24.992 2°50.921 2.4 10.8 354 21.5
2009-07-24 07:53:59 51°25.171 2°50.888 0.9 10.9 354 21.6
2009-07-24 07:54:59 51°25.353 2°50.854 2.7 11 353 21.5
2009-07-24 07:55:59 51°25.534 2°50.822 2 11 351 21.9
2009-07-24 07:56:59 51°25.714 2°50.79 1.7 10.9 350 22.3
2009-07-24 07:57:59 51°25.895 2°50.756 2.5 11 355 22.2
2009-07-24 07:58:59 51°26.077 2°50.721 2.2 11.1 351 22.5
2009-07-24 07:59:59 51°26.259 2°50.692 2.9 11 356 22.3
2009-07-24 08:00:59 51°26.441 2°50.664 2.6 11.1 355 22.2
2009-07-24 08:01:59 51°26.625 2°50.633 2.8 11.2 356 22.1
2009-07-24 08:02:59 51°26.806 2°50.608 2.3 10.9 357 22
2009-07-24 08:03:59 51°26.986 2°50.584 1.9 10.8 354 17.9
2009-07-24 08:04:59 51°27.165 2°50.558 1.3 10.8 353 19.2
2009-07-24 08:05:59 51°27.347 2°50.538 3.2 10.9 358 20.2
2009-07-24 08:06:59 51°27.528 2°50.513 2.1 11.1 353 22.2
2009-07-24 08:07:59 51°27.708 2°50.484 2 11 351 23.2
2009-07-24 08:08:59 51°27.89 2°50.456 2.1 10.9 353 26.8
2009-07-24 08:09:59 51°28.07 2°50.429 2.1 10.8 358 26.2
2009-07-24 08:10:59 51°28.25 2°50.399 3.6 10.8 357 25.8
2009-07-24 08:11:59 51°28.43 2°50.368 1.1 10.9 355 26.5
2009-07-24 08:12:59 51°28.61 2°50.34 2.3 10.8 355 25.5
2009-07-24 08:13:59 51°28.788 2°50.31 2.9 10.8 355 25.1
2009-07-24 08:14:59 51°28.964 2°50.277 3.7 10.7 357 25.2
2009-07-24 08:15:59 51°29.14 2°50.245 3.6 10.9 355 29
2009-07-24 08:16:59 51°29.318 2°50.219 3.2 10.8 357 29.4
2009-07-24 08:17:59 51°29.49 2°50.241 26.6 10.2 26 29.9
2009-07-24 08:18:59 51°29.582 2°50.459 67.2 10.4 66 29.2
2009-07-24 08:19:59 51°29.646 2°50.713 67.2 10.1 68 30.1
2009-07-24 08:20:59 51°29.71 2°50.969 69.2 10.2 70 28.4
2009-07-24 08:21:59 51°29.772 2°51.225 69 10.3 71 28.9
2009-07-24 08:22:59 51°29.834 2°51.481 69 10.3 71 29.1
2009-07-24 08:23:59 51°29.897 2°51.737 68.6 10.4 74 30.6
2009-07-24 08:24:59 51°29.961 2°51.99 67.6 10.2 66 30
2009-07-24 08:25:59 51°30.025 2°52.242 67.1 9.8 69 29.7
2009-07-24 08:26:59 51°30.082 2°52.481 68.9 10 68 28.6
2009-07-24 08:27:59 51°30.144 2°52.732 67 10.1 67 28.9
2009-07-24 08:28:59 51°30.206 2°52.985 69.8 10.3 70 29.8
2009-07-24 08:29:59 51°30.269 2°53.243 69 10.1 72 29.4
2009-07-24 08:30:59 51°30.332 2°53.496 68.5 10.3 70 30.6
2009-07-24 08:31:59 51°30.393 2°53.748 68.3 10.1 68 31.5
2009-07-24 08:32:59 51°30.457 2°54.002 68.3 10.3 69 31.7
2009-07-24 08:33:59 51°30.519 2°54.256 69 10.2 74 32.2
2009-07-24 08:34:59 51°30.582 2°54.507 70.3 10.1 72 31.1
2009-07-24 08:35:59 51°30.642 2°54.757 69.5 10.1 69 32
2009-07-24 08:36:59 51°30.702 2°55.007 69.6 10 74 33
2009-07-24 08:37:59 51°30.761 2°55.259 68.6 10 66 34.2
2009-07-24 08:38:59 51°30.819 2°55.515 68.8 10.3 68 35
2009-07-24 08:39:59 51°30.877 2°55.767 69.2 9.9 70 36.4
2009-07-24 08:40:59 51°30.93 2°56.015 69.8 9.8 73 34.2
2009-07-24 08:41:59 51°30.982 2°56.262 68.2 10 69 31.4
2009-07-24 08:42:59 51°31.041 2°56.506 67.5 9.7 69 31.3
2009-07-24 08:43:59 51°31.113 2°56.739 59.9 9.8 61 30.8
2009-07-24 08:44:59 51°31.203 2°56.956 56.7 9.5 52 30.3
2009-07-24 08:45:59 51°31.3 2°57.155 51.6 9.7 52 31.5
2009-07-24 08:46:59 51°31.404 2°57.352 51.2 9.4 59 30.6
2009-07-24 08:47:59 51°31.506 2°57.548 51.8 9.9 48 32
2009-07-24 08:48:59 51°31.604 2°57.755 52.1 9.9 58 33.8
2009-07-24 08:49:59 51°31.704 2°57.956 50.5 9.9 47 33.2
2009-07-24 08:50:59 51°31.803 2°58.163 51.3 9.6 54 32
2009-07-24 08:51:59 51°31.909 2°58.358 47.1 9.7 43 35.9
2009-07-24 08:52:59 51°32.027 2°58.536 43.5 9.6 40 35.8
2009-07-24 08:53:59 51°32.154 2°58.696 40 9.5 38 34.1
2009-07-24 08:54:59 51°32.286 2°58.846 38.9 9.7 36 32.6
2009-07-24 08:55:59 51°32.421 2°58.986 35.5 9.6 26 33.5
2009-07-24 08:56:59 51°32.561 2°59.118 35.2 9.7 32 32.7
2009-07-24 08:57:59 51°32.715 2°59.199 6 10 356 29.8
2009-07-24 08:58:59 51°32.867 2°59.079 330.2 10.2 318 14.2
2009-07-24 08:59:59 51°32.981 2°58.871 317.8 10.7 311 13.6
2009-07-24 09:00:59 51°33.091 2°58.656 316.3 10.6 307 15.7
2009-07-24 09:01:59 51°33.201 2°58.428 314.4 10.9 306 17.4
2009-07-24 09:02:59 51°33.307 2°58.193 313.4 11 306 17.9
2009-07-24 09:03:59 51°33.41 2°57.95 311.6 11 305 19.2
2009-07-24 09:04:59 51°33.512 2°57.708 311.9 10.9 304 22.5
2009-07-24 09:05:59 51°33.614 2°57.462 312.3 11.1 303 25.6
2009-07-24 09:06:59 51°33.717 2°57.219 312.6 10.9 305 26.4
2009-07-24 09:07:59 51°33.819 2°56.974 312.2 11 303 27.4
2009-07-24 09:08:59 51°33.921 2°56.727 312 11.3 303 26.9
2009-07-24 09:09:59 51°34.02 2°56.476 312.2 11.1 301 28.4
2009-07-24 09:10:59 51°34.121 2°56.227 314 11.1 303 29.1
2009-07-24 09:11:59 51°34.221 2°55.978 307.2 11.4 295 30.3
2009-07-24 09:12:59 51°34.232 2°55.683 257.3 11.8 249 29.4
2009-07-24 09:13:59 51°34.117 2°55.416 230.6 12.6 229 27.8
2009-07-24 09:14:59 51°33.99 2°55.139 238.4 13 236 29.1
2009-07-24 09:15:59 51°33.872 2°54.859 239 12.7 237 28.2
2009-07-24 09:16:59 51°33.751 2°54.577 238.6 12.7 236 27.3
2009-07-24 09:17:59 51°33.636 2°54.298 239.6 12.6 236 27.8
2009-07-24 09:18:59 51°33.518 2°54.014 238.9 12.5 236 27.1
2009-07-24 09:19:59 51°33.399 2°53.732 238.9 12.8 236 28.6
2009-07-24 09:20:59 51°33.278 2°53.451 238.7 12.8 235 26.4
2009-07-24 09:21:59 51°33.159 2°53.168 238.7 12.9 236 27.2
2009-07-24 09:22:59 51°33.038 2°52.882 238.3 12.9 235 28.5
2009-07-24 09:23:59 51°32.916 2°52.598 238.7 13 237 28.4
2009-07-24 09:24:59 51°32.795 2°52.317 238.3 12.7 235 27.3
2009-07-24 09:25:59 51°32.673 2°52.038 237.8 12.6 235 28.6
2009-07-24 09:26:59 51°32.553 2°51.758 238.4 12.8 235 29.2
2009-07-24 09:27:59 51°32.429 2°51.477 238.2 12.9 234 26.9
2009-07-24 09:28:59 51°32.303 2°51.198 238.2 12.9 236 31
2009-07-24 09:29:59 51°32.181 2°50.922 238.1 12.5 234 28.6
2009-07-24 09:30:59 51°32.061 2°50.643 239.2 12.9 235 31.1
2009-07-24 09:31:59 51°31.938 2°50.363 238.3 12.9 235 30.9
2009-07-24 09:32:59 51°31.816 2°50.085 238.8 12.8 235 27.9
2009-07-24 09:33:59 51°31.694 2°49.806 238.1 12.8 235 29
2009-07-24 09:34:59 51°31.572 2°49.526 238.6 12.7 235 29.2
2009-07-24 09:35:59 51°31.451 2°49.245 237.9 12.7 234 27.6
2009-07-24 09:36:59 51°31.329 2°48.967 237.4 12.8 234 26.5
2009-07-24 09:37:59 51°31.208 2°48.686 239.3 12.8 236 27.7
2009-07-24 09:38:59 51°31.086 2°48.408 238.8 12.7 236 26.9
2009-07-24 09:39:59 51°30.973 2°48.119 242 12.8 239 28.4
2009-07-24 09:40:59 51°30.886 2°47.817 260.3 12.1 257 26.8
2009-07-24 09:41:59 51°30.897 2°47.513 299.7 10.7 293 27.8
2009-07-24 09:42:59 51°31.017 2°47.314 335.5 10.4 327 28.9
2009-07-24 09:43:59 51°31.175 2°47.207 351.3 10.2 345 27.9
2009-07-24 09:44:59 51°31.339 2°47.16 1.7 9.9 350 28.4
2009-07-24 09:45:59 51°31.503 2°47.141 4 9.9 355 28.4
2009-07-24 09:46:59 51°31.667 2°47.139 7.3 9.9 358 28.3
2009-07-24 09:47:59 51°31.831 2°47.136 7.4 10 359 28.5
2009-07-24 09:48:59 51°31.996 2°47.129 5.1 9.7 357 29
2009-07-24 09:49:59 51°32.16 2°47.122 7.3 9.8 1 30.1
2009-07-24 09:50:59 51°32.324 2°47.122 9.8 9.9 2 31.7
2009-07-24 09:51:59 51°32.487 2°47.118 8.9 9.8 357 31.2
2009-07-24 09:52:59 51°32.651 2°47.122 9.1 9.8 2 30.2
2009-07-24 09:53:59 51°32.816 2°47.123 6.8 9.9 7 31.1
2009-07-24 09:54:59 51°32.981 2°47.114 4.2 9.7 4 30.5
2009-07-24 09:55:59 51°33.147 2°47.108 5.6 9.8 6 -999
2009-07-24 09:56:59 51°33.311 2°47.121 8.5 9.8 7 32.8
2009-07-24 09:57:59 51°33.475 2°47.122 5.9 9.8 359 27.6
2009-07-24 09:58:59 51°33.642 2°47.128 5.6 9.7 6 31
2009-07-24 09:59:59 51°33.807 2°47.131 7.9 10 359 31
2009-07-24 10:00:59 51°33.972 2°47.137 5.9 9.9 6 29.7
2009-07-24 10:01:59 51°34.136 2°47.139 8.6 9.8 1 31.3
2009-07-24 10:02:59 51°34.3 2°47.147 8.4 9.8 357 30.9
2009-07-24 10:03:59 51°34.464 2°47.14 4.7 10.1 352 31
2009-07-24 10:04:59 51°34.626 2°47.132 2.5 9.8 354 30.3
2009-07-24 10:05:59 51°34.789 2°47.134 8 9.8 3 32.8
2009-07-24 10:06:59 51°34.951 2°47.127 3.8 9.9 353 34.8
2009-07-24 10:07:59 51°35.115 2°47.123 6.8 9.8 358 34.1
2009-07-24 10:08:59 51°35.277 2°47.127 8.4 9.5 -999 34.7
2009-07-24 10:09:59 51°35.435 2°47.162 21.3 9.4 17 35.1
2009-07-24 10:10:59 51°35.577 2°47.267 27.7 9.5 33 36.5
2009-07-24 10:11:59 51°35.718 2°47.372 31 9.3 23 36.3
2009-07-24 10:12:59 51°35.861 2°47.477 26.1 9.4 17 36.3
2009-07-24 10:13:59 51°36.003 2°47.592 25.3 9.8 32 36.8
2009-07-24 10:14:59 51°36.147 2°47.695 27.7 9.5 21 37.8
2009-07-24 10:15:59 51°36.288 2°47.804 29.1 9.4 21 36.5
2009-07-24 10:16:59 51°36.43 2°47.905 26.8 9.4 16 38.2
2009-07-24 10:17:59 51°36.571 2°48.012 27 9.2 25 37.9
2009-07-24 10:19:00 51°36.716 2°48.113 28.2 9.3 17 38.7
2009-07-24 10:19:59 51°36.853 2°48.224 33 9.8 35 37.6
2009-07-24 10:20:59 51°36.988 2°48.351 33.7 9.3 26 37.4
2009-07-24 10:21:59 51°37.124 2°48.471 30 9.2 28 -999
2009-07-24 10:22:59 51°37.258 2°48.599 32 9.5 33 38.7
2009-07-24 10:23:59 51°37.394 2°48.729 33.4 9.5 35 38.2
2009-07-24 10:24:59 51°37.531 2°48.847 29.1 9.3 33 39.1
2009-07-24 10:25:59 51°37.668 2°48.97 29 9.5 19 36.9
2009-07-24 10:26:59 51°37.805 2°49.082 32.5 9.4 19 37.8
2009-07-24 10:27:59 51°37.944 2°49.199 33.4 9.9 28 39
2009-07-24 10:28:59 51°38.083 2°49.318 30.4 9.5 34 37.3
2009-07-24 10:30:00 51°38.222 2°49.44 30.9 9.4 19 36.7
2009-07-24 10:31:00 51°38.36 2°49.554 28.4 9.3 18 39.2
2009-07-24 10:31:59 51°38.497 2°49.666 29.1 9.6 28 38.3
2009-07-24 10:32:59 51°38.639 2°49.779 27.5 9.4 22 37.6
2009-07-24 10:33:59 51°38.781 2°49.892 33.2 9.8 34 38.3
2009-07-24 10:35:00 51°38.925 2°50.011 27.8 10 39 5.3
2009-07-24 10:35:59 51°39.065 2°50.112 31 9.8 29 36
2009-07-24 10:36:59 51°39.203 2°50.238 32.7 9.7 39 37.7
2009-07-24 10:37:59 51°39.339 2°50.375 36.6 9.6 31 33.7
2009-07-24 10:38:59 51°39.476 2°50.513 30.6 9.3 31 -999
2009-07-24 10:39:59 51°39.613 2°50.644 30.5 9.4 22 37.1
2009-07-24 10:41:00 51°39.755 2°50.766 31.6 10.2 37 38.3
2009-07-24 10:41:59 51°39.894 2°50.874 38.6 9.8 44 38.6
2009-07-24 10:42:59 51°39.929 2°51.117 97 10.4 107 35.2
2009-07-24 10:43:59 51°39.806 2°51.334 130.9 11.6 137 28.1
2009-07-24 10:44:59 51°39.664 2°51.544 129 11.7 134 31.6
2009-07-24 10:45:59 51°39.522 2°51.754 128.6 11.6 137 34.6
2009-07-24 10:46:59 51°39.381 2°51.963 129.9 11.6 141 33.5
2009-07-24 10:47:59 51°39.241 2°52.17 130.5 11.5 134 34.1
2009-07-24 10:48:59 51°39.098 2°52.38 132.6 11.5 141 32.9
2009-07-24 10:49:59 51°38.956 2°52.587 131.2 11.6 131 28.2
2009-07-24 10:50:59 51°38.817 2°52.793 130.1 11.4 137 34.5
2009-07-24 10:51:59 51°38.675 2°53.002 129.6 11.4 136 34.2
2009-07-24 10:52:59 51°38.535 2°53.211 131.4 11.7 142 32.3
2009-07-24 10:53:59 51°38.397 2°53.423 128.6 11.5 139 32.7
2009-07-24 10:55:00 51°38.257 2°53.637 132.9 11.2 132 32.6
2009-07-24 10:55:59 51°38.117 2°53.838 130.3 11.5 138 31.2
2009-07-24 10:56:59 51°37.98 2°54.047 129.3 11.4 134 28.2
2009-07-24 10:57:59 51°37.836 2°54.25 131.1 11.4 136 26.5
2009-07-24 10:58:59 51°37.702 2°54.47 128.3 11.4 134 25
2009-07-24 10:59:59 51°37.573 2°54.693 127.1 11.6 132 25.6
2009-07-24 11:00:59 51°37.443 2°54.915 137.9 11.4 149 23.8
2009-07-24 11:02:01 51°37.253 2°54.94 197 10.7 197 -999
2009-07-24 11:03:01 51°37.137 2°54.738 244 11.4 239 22.7
2009-07-24 11:03:59 51°37.038 2°54.481 242.6 11.9 238 20.6
2009-07-24 11:04:59 51°36.933 2°54.225 241.2 11.5 236 21.6
2009-07-24 11:06:00 51°36.825 2°53.972 240.6 11 236 -999
2009-07-24 11:06:59 51°36.719 2°53.721 241.7 11.6 237 22.6
2009-07-24 11:07:59 51°36.611 2°53.465 241.6 11.7 237 21.8
2009-07-24 11:08:59 51°36.503 2°53.21 240.4 11.4 233 19.6
2009-07-24 11:09:59 51°36.396 2°52.953 241.6 11.6 237 22.7
2009-07-24 11:10:59 51°36.29 2°52.694 239.3 11.9 236 21.4
2009-07-24 11:11:59 51°36.178 2°52.443 239.1 11 235 24.1
2009-07-24 11:12:59 51°36.065 2°52.192 238.2 11.8 235 21.3
2009-07-24 11:13:59 51°35.954 2°51.943 239.2 11.8 236 25.8
2009-07-24 11:14:59 51°35.842 2°51.693 239 11.2 234 24
2009-07-24 11:16:00 51°35.732 2°51.441 239.9 11 235 24.9
2009-07-24 11:16:59 51°35.629 2°51.203 239.3 11.4 234 24.9
2009-07-24 11:17:59 51°35.52 2°50.948 239.6 11.3 236 21.5
2009-07-24 11:18:59 51°35.403 2°50.704 228.3 11.2 220 26.4
2009-07-24 11:19:59 51°35.241 2°50.703 138.5 10.5 139 26.2
2009-07-24 11:20:59 51°35.116 2°50.919 126.2 11.3 135 29.3
2009-07-24 11:21:59 51°34.984 2°51.136 132.2 11.4 140 33.5
2009-07-24 11:22:59 51°34.848 2°51.348 133.6 11.4 135 36.6
2009-07-24 11:23:59 51°34.71 2°51.553 134.5 11.2 146 37.3
2009-07-24 11:25:00 51°34.573 2°51.76 131.1 10.9 133 36.8
2009-07-24 11:25:59 51°34.438 2°51.956 132.9 11.1 133 38.5
2009-07-24 11:26:59 51°34.303 2°52.157 131.5 11.1 135 34.1
2009-07-24 11:27:59 51°34.169 2°52.358 130 11 135 34.7
2009-07-24 11:28:59 51°34.03 2°52.557 131.5 11.2 141 31
2009-07-24 11:29:59 51°33.891 2°52.756 133.1 11.3 138 32.4
2009-07-24 11:30:59 51°33.798 2°52.986 92.2 9.5 84 33.7
2009-07-24 11:31:59 51°33.878 2°53.203 54.5 9.8 45 31.6
2009-07-24 11:32:59 51°33.973 2°53.419 54 9.8 60 32.4
2009-07-24 11:33:59 51°34.07 2°53.637 57.9 9.9 58 32.4
2009-07-24 11:34:59 51°34.165 2°53.859 53.7 10.1 51 31
2009-07-24 11:35:59 51°34.258 2°54.082 54.2 10.2 64 32.9
2009-07-24 11:36:59 51°34.353 2°54.302 56.4 10 57 30.7
2009-07-24 11:37:59 51°34.448 2°54.53 54.4 10.2 60 31.6
2009-07-24 11:38:59 51°34.541 2°54.759 56.1 10.5 58 30.9
2009-07-24 11:39:59 51°34.638 2°54.982 52.7 10.3 50 30
2009-07-24 11:40:59 51°34.742 2°55.196 51.2 10.3 45 32.6
2009-07-24 11:42:00 51°34.843 2°55.413 53 10 51 34.8
2009-07-24 11:42:59 51°34.944 2°55.623 51.6 10.4 58 33
2009-07-24 11:43:59 51°35.042 2°55.848 53.1 10 53 34.5
2009-07-24 11:44:59 51°35.142 2°56.068 48.4 10.2 56 33.9
2009-07-24 11:45:59 51°35.24 2°56.289 52.3 10.4 60 33.2
2009-07-24 11:46:59 51°35.34 2°56.509 49.2 10.2 60 34.8
2009-07-24 11:47:59 51°35.442 2°56.729 51.6 10.2 54 33.2
2009-07-24 11:48:59 51°35.54 2°56.952 52 10.4 56 35.4
2009-07-24 11:49:59 51°35.641 2°57.179 54.1 11.1 61 36.9
2009-07-24 11:50:59 51°35.743 2°57.401 49.4 10.3 44 36.7
2009-07-24 11:51:59 51°35.847 2°57.624 53.3 10.5 56 35.6
2009-07-24 11:52:59 51°35.924 2°57.866 79.8 10.4 88 33.7
2009-07-24 11:53:59 51°35.835 2°58.101 141.6 11.2 142 35.8
2009-07-24 11:54:59 51°35.663 2°58.228 156.4 11.5 161 36.3
2009-07-24 11:55:59 51°35.482 2°58.327 160.5 11.7 159 35
2009-07-24 11:56:59 51°35.3 2°58.426 158.7 11.5 165 33
2009-07-24 11:57:59 51°35.116 2°58.514 162 11.6 168 32.1
2009-07-24 11:58:59 51°34.933 2°58.597 161 11.4 166 29.3
2009-07-24 11:59:59 51°34.749 2°58.678 164.1 11.7 163 29.6
2009-07-24 12:00:59 51°34.565 2°58.761 161.9 11.5 167 25.7
2009-07-24 12:01:59 51°34.377 2°58.846 162.7 11.5 163 -999
2009-07-24 12:02:59 51°34.192 2°58.93 162.4 11.9 163 24.9
2009-07-24 12:03:59 51°34.005 2°59.021 161.2 11.8 160 20.3
2009-07-24 12:05:00 51°33.814 2°59.118 161.9 11.8 160 -999
2009-07-24 12:05:59 51°33.626 2°59.211 162.5 12.4 161 18
2009-07-24 12:06:59 51°33.434 2°59.309 162.1 12.1 163 17.2
2009-07-24 12:07:59 51°33.24 2°59.412 163.4 12.2 159 13.2
2009-07-24 12:09:01 51°33.051 2°59.53 163 11.7 158 23.1
2009-07-24 12:09:59 51°32.871 2°59.626 163.1 11.7 163 33.5
2009-07-24 12:10:59 51°32.684 2°59.727 164.8 11.8 165 33.2
2009-07-24 12:11:59 51°32.495 2°59.805 168.5 11.3 168 32.9
2009-07-24 12:12:59 51°32.309 2°59.823 188.7 11.2 185 32.2
2009-07-24 12:13:59 51°32.13 2°59.747 203.7 10.9 200 -999
2009-07-24 12:15:00 51°31.953 2°59.651 202.6 10.7 195 -999
2009-07-24 12:15:59 51°31.776 2°59.574 198.2 11.5 192 28.3
2009-07-24 12:16:59 51°31.59 2°59.5 199 11.6 195 29.1
2009-07-24 12:17:59 51°31.407 2°59.423 199.5 11.5 194 28.6
2009-07-24 12:18:59 51°31.224 2°59.345 199.4 11.3 193 27.9
2009-07-24 12:19:59 51°31.045 2°59.273 199.9 10.9 193 28.4
2009-07-24 12:20:59 51°30.866 2°59.199 199.7 11.1 195 28.3
2009-07-24 12:22:01 51°30.681 2°59.127 199.2 10.8 194 28.9
2009-07-24 12:22:59 51°30.513 2°59.062 201.8 10.5 198 27.1
2009-07-24 12:23:59 51°30.34 2°58.981 202.3 10.8 195 25
2009-07-24 12:24:59 51°30.169 2°58.897 202.7 10.7 196 27.4
2009-07-24 12:25:59 51°30.002 2°58.819 202 10.3 196 26.7
2009-07-24 12:27:00 51°29.831 2°58.735 202.2 11 196 27.5
2009-07-24 12:27:59 51°29.665 2°58.655 202.2 10.4 195 26
2009-07-24 12:28:59 51°29.502 2°58.57 202.9 10.5 196 27.6
2009-07-24 12:30:00 51°29.337 2°58.491 201.3 9.9 196 28.1
2009-07-24 12:31:00 51°29.177 2°58.418 201.9 10.1 195 29.9
2009-07-24 12:31:59 51°29.021 2°58.347 203.2 10.1 200 29
2009-07-24 12:33:00 51°28.857 2°58.265 203.5 9.9 202 29.9
2009-07-24 12:33:59 51°28.701 2°58.19 201.6 9.9 193 32
2009-07-24 12:34:59 51°28.543 2°58.112 202.3 10.5 197 32.7
2009-07-24 12:36:00 51°28.381 2°58.026 201.4 10.1 197 32.6
2009-07-24 12:36:59 51°28.22 2°57.941 201.8 10.2 197 31
2009-07-24 12:37:59 51°28.058 2°57.853 202.6 10.5 195 31.9
2009-07-24 12:38:59 51°27.894 2°57.771 201.5 10.1 196 30.5
2009-07-24 12:39:59 51°27.733 2°57.687 202.8 10.4 198 29
2009-07-24 12:40:59 51°27.567 2°57.605 202.5 10.4 198 28.5
2009-07-24 12:42:00 51°27.401 2°57.528 201.5 10 200 26.7
2009-07-24 12:42:59 51°27.241 2°57.453 202.2 10.2 198 26
2009-07-24 12:44:01 51°27.073 2°57.38 202.2 10.2 196 24.3
2009-07-24 12:44:59 51°26.919 2°57.314 201.2 10.1 195 22.9
2009-07-24 12:45:59 51°26.756 2°57.244 202.1 9.9 195 20.7
2009-07-24 12:47:01 51°26.592 2°57.181 202.7 9.5 188 18.5
2009-07-24 12:48:00 51°26.438 2°57.12 202.6 10 196 18.8
2009-07-24 12:49:02 51°26.274 2°57.057 202.1 9.4 194 -999
2009-07-24 12:49:59 51°26.122 2°56.998 202.1 10.2 192 18.6
2009-07-24 12:51:00 51°25.955 2°56.933 204 9.8 191 18.3
2009-07-24 12:52:02 51°25.799 2°56.88 203.8 9.9 198 19.6
2009-07-24 12:53:02 51°25.646 2°56.812 205.8 9.5 197 20.8
2009-07-24 12:54:03 51°25.491 2°56.739 206 9.7 198 23.7
2009-07-24 12:55:02 51°25.34 2°56.668 205.5 9.5 197 26.1
2009-07-24 12:56:02 51°25.19 2°56.608 205.1 9.1 192 27.5
2009-07-24 12:57:02 51°25.04 2°56.542 205.9 9.7 195 26.5
2009-07-24 12:57:59 51°24.895 2°56.474 205.4 10 196 27
2009-07-24 12:58:59 51°24.741 2°56.403 205.6 9.4 194 25.6
2009-07-24 12:59:59 51°24.592 2°56.338 205.6 9.1 193 24.9
2009-07-24 13:01:00 51°24.444 2°56.274 204.8 8.3 191 25.4
2009-07-24 13:01:59 51°24.307 2°56.219 206.1 8.8 195 23.7
2009-07-24 13:03:01 51°24.157 2°56.152 205.4 8.6 194 -999
2009-07-24 13:03:59 51°24.02 2°56.084 209 9 201 19.9
2009-07-24 13:04:59 51°23.878 2°56 209.2 9 201 18.7
2009-07-24 13:05:59 51°23.737 2°55.915 209.8 8.9 199 19.2
2009-07-24 13:06:59 51°23.597 2°55.831 209.3 9.1 200 20.1
2009-07-24 13:07:59 51°23.456 2°55.747 210 8.9 202 20.2
2009-07-24 13:08:59 51°23.315 2°55.661 209.8 9.3 200 21.9
2009-07-24 13:10:00 51°23.171 2°55.583 207.3 8.9 196 21.3
2009-07-24 13:11:00 51°23.033 2°55.51 209.9 8.8 197 21.6
2009-07-24 13:11:59 51°22.895 2°55.43 208.5 9.2 200 22
2009-07-24 13:12:59 51°22.751 2°55.348 208.3 9.1 199 21.5
2009-07-24 13:13:59 51°22.606 2°55.265 209.6 9.3 201 21.1
2009-07-24 13:14:59 51°22.461 2°55.182 209.4 9.3 198 20.7
2009-07-24 13:15:58 51°22.322 2°55.103 209.5 9 200 22.4
2009-07-24 13:16:59 51°22.179 2°55.021 210.6 8.7 198 20.7
2009-07-24 13:18:00 51°22.037 2°54.945 208.6 8.8 194 -999
2009-07-24 13:18:59 51°21.901 2°54.868 210.5 9.1 199 20.3
2009-07-24 13:20:01 51°21.757 2°54.788 210.2 8.5 198 20.3
2009-07-24 13:21:01 51°21.624 2°54.708 211.1 8.4 200 20.7
2009-07-24 13:21:59 51°21.496 2°54.627 211.9 8.6 203 20.2
2009-07-24 13:23:00 51°21.36 2°54.54 210.9 8.6 200 -999
2009-07-24 13:23:59 51°21.232 2°54.454 213.3 8.3 201 20.1
2009-07-24 13:24:59 51°21.104 2°54.369 212.4 8.6 205 19.7
2009-07-24 13:25:59 51°20.969 2°54.28 211.3 8.6 204 20.2
2009-07-24 13:26:59 51°20.837 2°54.193 211.4 8.5 202 18.9
2009-07-24 13:28:00 51°20.706 2°54.115 211.6 8.3 201 18.9
2009-07-24 13:28:58 51°20.577 2°54.031 211.2 8.8 202 19.3
2009-07-24 13:29:59 51°20.438 2°53.941 211.3 8.7 200 18.4
2009-07-24 13:30:59 51°20.302 2°53.854 211.8 8.5 201 18.3
2009-07-24 13:32:00 51°20.17 2°53.77 212.1 8.2 201 18.2
2009-07-24 13:32:59 51°20.039 2°53.684 211.4 8.9 202 18.6
2009-07-24 13:33:59 51°19.901 2°53.59 211.4 8.9 202 17.4
2009-07-24 13:35:00 51°19.768 2°53.508 210.3 8.7 202 17.8
2009-07-24 13:36:01 51°19.637 2°53.421 211.3 8.3 202 16.7
2009-07-24 13:37:00 51°19.509 2°53.334 211.7 8.5 202 16.2
2009-07-24 13:37:59 51°19.375 2°53.242 210.9 8.9 202 15.8
2009-07-24 13:39:00 51°19.235 2°53.145 210.4 8.8 201 15.7
2009-07-24 13:39:59 51°19.102 2°53.051 210.4 9 202 15.1
2009-07-24 13:41:00 51°18.963 2°52.955 211.6 8.8 206 15.3
2009-07-24 13:42:01 51°18.827 2°52.869 208.4 8.2 199 -999
2009-07-24 13:43:00 51°18.692 2°52.793 208.5 8.8 199 15.7
2009-07-24 13:44:00 51°18.556 2°52.715 208.8 9.1 201 14.5
2009-07-24 13:44:59 51°18.415 2°52.629 207.7 9.2 199 14.7
2009-07-24 13:46:00 51°18.274 2°52.554 205.3 9.1 198 14.1
2009-07-24 13:46:59 51°18.128 2°52.485 204.2 9.2 194 14.2
2009-07-24 13:47:59 51°17.976 2°52.439 195.7 9 192 13.5
2009-07-24 13:48:58 51°17.823 2°52.409 194.8 9.2 189 13.8
2009-07-24 13:49:59 51°17.672 2°52.389 196 9 184 13.1
2009-07-24 13:50:59 51°17.52 2°52.364 193.2 9.5 184 13.5
2009-07-24 13:51:59 51°17.364 2°52.356 191.7 9.5 180 14
2009-07-24 13:52:59 51°17.204 2°52.362 183.7 9.9 174 12.9
2009-07-24 13:53:59 51°17.043 2°52.445 168.9 10.5 154 13.2
2009-07-24 13:54:59 51°16.885 2°52.571 162.9 10.5 157 13.5
2009-07-24 13:55:59 51°16.728 2°52.694 166.1 10.3 159 13.6
2009-07-24 13:56:59 51°16.568 2°52.822 165.7 10.9 152 15.1
2009-07-24 13:58:00 51°16.405 2°52.95 167 10.7 155 15.4
2009-07-24 13:58:59 51°16.247 2°53.072 168.1 10.7 154 14.8
2009-07-24 13:59:59 51°16.085 2°53.196 167.5 10.6 156 14.7
2009-07-24 14:00:59 51°15.922 2°53.316 167.5 10.8 156 14.9
2009-07-24 14:01:59 51°15.76 2°53.436 167.5 10.7 157 14.8
2009-07-24 14:02:59 51°15.597 2°53.553 167.1 10.9 154 14.1
2009-07-24 14:03:59 51°15.433 2°53.666 165.5 10.9 152 13.5
2009-07-24 14:05:00 51°15.275 2°53.824 154 11.2 144 12.8
2009-07-24 14:05:59 51°15.128 2°53.998 154.6 11.1 142 12.4
2009-07-24 14:07:00 51°14.976 2°54.174 156 11.1 145 11.6
2009-07-24 14:07:59 51°14.83 2°54.356 152.6 11.3 141 12.8
2009-07-24 14:08:59 51°14.688 2°54.562 149.7 11.4 140 12.8
2009-07-24 14:09:59 51°14.545 2°54.767 145.8 11.5 136 12.9
2009-07-24 14:10:59 51°14.414 2°54.999 141.5 12.2 124 13.5
2009-07-24 14:11:59 51°14.284 2°55.215 135.8 10.2 135 13.9
2009-07-24 14:13:00 51°14.162 2°55.385 148.1 8.9 149 14.2
2009-07-24 14:14:00 51°14.045 2°55.474 155.6 7.7 155 14.2
2009-07-24 14:14:59 51°13.929 2°55.558 157.2 7.8 157 14.3
2009-07-24 14:16:00 51°13.806 2°55.648 155 7.7 152 14.5
2009-07-24 14:16:59 51°13.729 2°55.758 129.5 5.2 127 15.4
2009-07-24 14:17:59 51°13.686 2°55.857 122.1 4 121 12.1
2009-07-24 14:18:59 51°13.665 2°55.938 106.9 2.3 108 9.7
2009-07-24 14:19:59 51°13.663 2°55.955 117.8 0.3 148 8.6
2009-07-24 14:20:59 51°13.662 2°55.96 120.9 0.3 43 8.7